createdAt,value
2022-12-31T00:00:54.114Z,1.85714
2022-12-31T00:01:54.207Z,1.71429
2022-12-31T00:02:54.314Z,1.5
2022-12-31T00:03:54.227Z,1.71429
2022-12-31T00:04:54.245Z,1.5
2022-12-31T00:05:54.282Z,1.71429
2022-12-31T00:06:54.325Z,1.85714
2022-12-31T00:07:54.368Z,1.71429
2022-12-31T00:08:54.388Z,1.71429
2022-12-31T00:09:54.435Z,1.5
2022-12-31T00:10:54.467Z,1.92857
2022-12-31T00:11:54.510Z,1.71429
2022-12-31T00:12:54.538Z,1.71429
2022-12-31T00:13:54.578Z,1.35714
2022-12-31T00:14:54.626Z,1.64286
2022-12-31T00:15:54.637Z,1.71429
2022-12-31T00:16:54.728Z,1.64286
2022-12-31T00:17:54.717Z,1.64286
2022-12-31T00:18:54.758Z,1.35714
2022-12-31T00:19:54.777Z,1.42857
2022-12-31T00:20:54.814Z,1.5
2022-12-31T00:21:54.844Z,1.5
2022-12-31T00:22:54.891Z,1.64286
2022-12-31T00:23:54.923Z,1.5
2022-12-31T00:24:54.955Z,1.21429
2022-12-31T00:25:54.992Z,1.42857
2022-12-31T00:26:55.019Z,1.5
2022-12-31T00:27:55.049Z,1.42857
2022-12-31T00:28:55.097Z,1.42857
2022-12-31T00:29:59.471Z,1.42857
2022-12-31T00:30:55.158Z,1.42857
2022-12-31T00:31:55.205Z,1.42857
2022-12-31T00:32:55.227Z,1.5
2022-12-31T00:33:55.260Z,1.35714
2022-12-31T00:34:55.315Z,1.42857
2022-12-31T00:35:55.335Z,1.64286
2022-12-31T00:36:55.363Z,1.42857
2022-12-31T00:37:55.402Z,1.42857
2022-12-31T00:38:55.443Z,1.42857
2022-12-31T00:39:55.476Z,1.35714
2022-12-31T00:40:55.509Z,1.42857
2022-12-31T00:41:55.549Z,1.35714
2022-12-31T00:42:55.588Z,1.21429
2022-12-31T00:43:55.655Z,1.35714
2022-12-31T00:44:55.702Z,1.21429
2022-12-31T00:45:55.700Z,1.42857
2022-12-31T00:46:55.712Z,1.35714
2022-12-31T00:47:55.743Z,1.35714
2022-12-31T00:48:55.788Z,1.14286
2022-12-31T00:49:55.807Z,1.35714
2022-12-31T00:50:55.853Z,1.35714
2022-12-31T00:51:55.874Z,1.21429
2022-12-31T00:52:55.913Z,1.21429
2022-12-31T00:53:55.992Z,1.14286
2022-12-31T00:54:55.978Z,1.21429
2022-12-31T00:55:56.015Z,1.21429
2022-12-31T00:56:56.033Z,1.21429
2022-12-31T00:57:56.065Z,1.35714
2022-12-31T00:58:56.109Z,1.35714
2022-12-31T00:59:56.127Z,1.21429
2022-12-31T01:00:56.225Z,1.35714
2022-12-31T01:01:56.310Z,1.35714
2022-12-31T01:02:56.382Z,1.14286
2022-12-31T01:03:56.304Z,1.42857
2022-12-31T01:04:56.326Z,1.21429
2022-12-31T01:05:56.358Z,1.21429
2022-12-31T01:06:56.401Z,1.14286
2022-12-31T01:07:56.444Z,1.21429
2022-12-31T01:08:56.475Z,1.21429
2022-12-31T01:09:56.506Z,1.14286
2022-12-31T01:10:56.535Z,0.928571
2022-12-31T01:11:56.581Z,1.14286
2022-12-31T01:12:56.615Z,1.35714
2022-12-31T01:13:56.667Z,1.14286
2022-12-31T01:14:56.682Z,1.14286
2022-12-31T01:15:56.801Z,1.21429
2022-12-31T01:16:56.761Z,1
2022-12-31T01:17:56.802Z,1.14286
2022-12-31T01:18:56.838Z,1.14286
2022-12-31T01:19:56.872Z,1.14286
2022-12-31T01:20:56.899Z,1.14286
2022-12-31T01:21:56.980Z,1.14286
2022-12-31T01:22:56.977Z,0.928571
2022-12-31T01:23:57.038Z,1.14286
2022-12-31T01:24:57.044Z,1
2022-12-31T01:25:57.084Z,1
2022-12-31T01:26:57.127Z,1.14286
2022-12-31T01:27:57.151Z,1.21429
2022-12-31T01:28:57.193Z,1.21429
2022-12-31T01:29:57.222Z,1.14286
2022-12-31T01:30:57.313Z,0.857143
2022-12-31T01:31:57.296Z,1.21429
2022-12-31T01:32:57.324Z,1.14286
2022-12-31T01:33:57.363Z,1
2022-12-31T01:34:57.406Z,1.14286
2022-12-31T01:35:57.440Z,1.14286
2022-12-31T01:36:57.463Z,1.14286
2022-12-31T01:37:57.495Z,1
2022-12-31T01:38:57.524Z,0.928571
2022-12-31T01:39:57.557Z,1.21429
2022-12-31T01:40:57.599Z,1
2022-12-31T01:41:57.631Z,1
2022-12-31T01:42:57.675Z,1.14286
2022-12-31T01:43:57.696Z,0.928571
2022-12-31T01:44:57.742Z,1.14286
2022-12-31T01:45:57.809Z,1
2022-12-31T01:46:57.806Z,1
2022-12-31T01:47:57.842Z,1
2022-12-31T01:48:57.880Z,0.928571
2022-12-31T01:49:57.902Z,0.928571
2022-12-31T01:50:57.943Z,1
2022-12-31T01:51:57.978Z,1.21429
2022-12-31T01:52:58.010Z,1.14286
2022-12-31T01:53:58.042Z,1
2022-12-31T01:54:58.081Z,0.928571
2022-12-31T01:55:58.117Z,0.857143
2022-12-31T01:56:58.151Z,0.928571
2022-12-31T01:57:58.185Z,1
2022-12-31T01:58:58.237Z,1.14286
2022-12-31T01:59:58.268Z,1
2022-12-31T02:00:58.338Z,1
2022-12-31T02:01:58.537Z,1
2022-12-31T02:02:58.446Z,1
2022-12-31T02:03:58.414Z,1
2022-12-31T02:04:58.454Z,0.928571
2022-12-31T02:05:58.494Z,0.928571
2022-12-31T02:06:58.529Z,1
2022-12-31T02:07:58.566Z,0.857143
2022-12-31T02:08:58.594Z,0.928571
2022-12-31T02:09:58.632Z,1
2022-12-31T02:10:58.679Z,0.857143
2022-12-31T02:11:58.723Z,0.928571
2022-12-31T02:12:58.727Z,0.928571
2022-12-31T02:13:58.983Z,1.14286
2022-12-31T02:14:58.796Z,1
2022-12-31T02:15:58.856Z,0.857143
2022-12-31T02:16:58.868Z,1
2022-12-31T02:17:58.901Z,1.14286
2022-12-31T02:18:58.951Z,1
2022-12-31T02:19:58.979Z,1
2022-12-31T02:20:59.003Z,1
2022-12-31T02:21:59.048Z,0.928571
2022-12-31T02:22:59.067Z,0.928571
2022-12-31T02:23:59.110Z,1
2022-12-31T02:24:59.152Z,0.928571
2022-12-31T02:25:59.188Z,1
2022-12-31T02:26:59.228Z,1
2022-12-31T02:27:59.270Z,0.928571
2022-12-31T02:28:59.307Z,0.928571
2022-12-31T02:29:59.331Z,1
2022-12-31T02:30:59.378Z,0.857143
2022-12-31T02:31:59.401Z,0.857143
2022-12-31T02:33:01.737Z,1
2022-12-31T02:33:59.472Z,0.857143
2022-12-31T02:34:59.510Z,0.928571
2022-12-31T02:35:59.539Z,0.857143
2022-12-31T02:36:59.571Z,1
2022-12-31T02:37:59.607Z,1
2022-12-31T02:38:59.637Z,0.928571
2022-12-31T02:39:59.677Z,1
2022-12-31T02:40:59.724Z,0.857143
2022-12-31T02:41:59.751Z,0.857143
2022-12-31T02:42:59.786Z,0.928571
2022-12-31T02:43:59.808Z,1
2022-12-31T02:44:59.840Z,0.928571
2022-12-31T02:45:59.880Z,0.928571
2022-12-31T02:46:59.913Z,1.14286
2022-12-31T02:47:59.959Z,1.14286
2022-12-31T02:48:59.999Z,1
2022-12-31T02:50:00.036Z,0.928571
2022-12-31T02:51:00.097Z,0.928571
2022-12-31T02:52:00.105Z,0.928571
2022-12-31T02:53:00.140Z,0.928571
2022-12-31T02:54:00.187Z,0.928571
2022-12-31T02:55:00.214Z,1
2022-12-31T02:56:00.248Z,1
2022-12-31T02:57:00.289Z,1
2022-12-31T02:58:00.337Z,1
2022-12-31T02:59:00.363Z,0.928571
2022-12-31T03:00:00.398Z,1
2022-12-31T03:01:00.614Z,1
2022-12-31T03:02:00.553Z,0.928571
2022-12-31T03:03:00.509Z,0.928571
2022-12-31T03:04:00.538Z,0.928571
2022-12-31T03:05:00.579Z,0.928571
2022-12-31T03:06:00.609Z,1
2022-12-31T03:07:00.646Z,1
2022-12-31T03:08:00.672Z,0.928571
2022-12-31T03:09:00.719Z,0.928571
2022-12-31T03:10:00.749Z,1.14286
2022-12-31T03:11:00.782Z,1
2022-12-31T03:12:00.826Z,0.857143
2022-12-31T03:13:00.863Z,0.928571
2022-12-31T03:14:00.902Z,1
2022-12-31T03:15:00.925Z,0.928571
2022-12-31T03:16:01.016Z,1
2022-12-31T03:17:01.010Z,0.928571
2022-12-31T03:18:01.028Z,1
2022-12-31T03:19:01.067Z,0.928571
2022-12-31T03:20:01.118Z,0.714286
2022-12-31T03:21:01.152Z,0.928571
2022-12-31T03:22:01.181Z,0.928571
2022-12-31T03:23:01.254Z,1
2022-12-31T03:24:01.255Z,0.928571
2022-12-31T03:25:01.291Z,1
2022-12-31T03:26:01.318Z,1
2022-12-31T03:27:01.360Z,0.928571
2022-12-31T03:28:01.404Z,0.857143
2022-12-31T03:29:01.444Z,0.928571
2022-12-31T03:30:01.495Z,0.857143
2022-12-31T03:31:01.577Z,0.928571
2022-12-31T03:32:01.565Z,1
2022-12-31T03:33:01.599Z,0.928571
2022-12-31T03:34:01.619Z,0.857143
2022-12-31T03:35:01.653Z,0.928571
2022-12-31T03:36:01.691Z,1
2022-12-31T03:37:01.717Z,1
2022-12-31T03:38:01.752Z,0.928571
2022-12-31T03:39:01.783Z,0.928571
2022-12-31T03:40:01.841Z,1
2022-12-31T03:41:01.867Z,0.928571
2022-12-31T03:42:01.895Z,1
2022-12-31T03:43:01.947Z,0.928571
2022-12-31T03:44:01.976Z,0.928571
2022-12-31T03:45:02.020Z,0.928571
2022-12-31T03:46:02.121Z,0.928571
2022-12-31T03:47:02.089Z,1
2022-12-31T03:48:02.137Z,0.928571
2022-12-31T03:49:02.149Z,1.14286
2022-12-31T03:50:02.188Z,1
2022-12-31T03:51:02.226Z,0.857143
2022-12-31T03:52:02.259Z,1
2022-12-31T03:53:02.309Z,1
2022-12-31T03:54:02.346Z,1
2022-12-31T03:55:02.378Z,0.857143
2022-12-31T03:56:02.396Z,0.928571
2022-12-31T03:57:02.449Z,1
2022-12-31T03:58:02.464Z,1
2022-12-31T03:59:02.512Z,0.928571
2022-12-31T04:00:02.547Z,1
2022-12-31T04:01:02.680Z,0.928571
2022-12-31T04:02:02.738Z,0.928571
2022-12-31T04:03:02.662Z,1
2022-12-31T04:04:02.680Z,0.928571
2022-12-31T04:05:02.694Z,0.928571
2022-12-31T04:06:02.729Z,1
2022-12-31T04:07:02.769Z,0.928571
2022-12-31T04:08:02.804Z,0.857143
2022-12-31T04:09:02.837Z,1
2022-12-31T04:10:02.877Z,1.14286
2022-12-31T04:11:02.926Z,0.928571
2022-12-31T04:12:02.964Z,0.928571
2022-12-31T04:13:03.001Z,1
2022-12-31T04:14:03.046Z,1
2022-12-31T04:15:03.074Z,0.857143
2022-12-31T04:16:03.172Z,1
2022-12-31T04:17:03.144Z,0.928571
2022-12-31T04:18:03.210Z,1
2022-12-31T04:19:03.227Z,0.928571
2022-12-31T04:20:03.248Z,0.928571
2022-12-31T04:21:03.294Z,0.928571
2022-12-31T04:22:03.318Z,0.857143
2022-12-31T04:23:03.365Z,0.928571
2022-12-31T04:24:03.384Z,1
2022-12-31T04:25:03.433Z,1.14286
2022-12-31T04:26:03.463Z,1.14286
2022-12-31T04:27:07.593Z,0.928571
2022-12-31T04:28:03.541Z,0.857143
2022-12-31T04:29:03.581Z,1.14286
2022-12-31T04:30:03.618Z,0.928571
2022-12-31T04:31:03.652Z,1
2022-12-31T04:32:03.751Z,1.14286
2022-12-31T04:33:03.730Z,1
2022-12-31T04:34:03.767Z,1
2022-12-31T04:35:03.797Z,1
2022-12-31T04:36:03.820Z,1
2022-12-31T04:37:03.864Z,0.928571
2022-12-31T04:38:03.890Z,1
2022-12-31T04:39:03.935Z,1.21429
2022-12-31T04:40:06.571Z,1.14286
2022-12-31T04:41:04.026Z,1
2022-12-31T04:42:04.031Z,1.14286
2022-12-31T04:43:04.062Z,1
2022-12-31T04:44:04.097Z,1
2022-12-31T04:45:04.151Z,1
2022-12-31T04:46:04.225Z,0.928571
2022-12-31T04:47:04.202Z,1.14286
2022-12-31T04:48:04.233Z,1.14286
2022-12-31T04:49:04.276Z,0.928571
2022-12-31T04:50:04.341Z,1.14286
2022-12-31T04:51:04.337Z,1.14286
2022-12-31T04:52:04.378Z,1.14286
2022-12-31T04:53:04.415Z,1
2022-12-31T04:54:04.461Z,0.928571
2022-12-31T04:55:04.482Z,1.14286
2022-12-31T04:56:04.519Z,1
2022-12-31T04:57:04.555Z,0.928571
2022-12-31T04:58:04.584Z,1
2022-12-31T04:59:04.629Z,1
2022-12-31T05:00:04.758Z,0.928571
2022-12-31T05:01:04.776Z,1.14286
2022-12-31T05:02:05.015Z,1.14286
2022-12-31T05:03:04.799Z,1
2022-12-31T05:04:04.834Z,1
2022-12-31T05:05:04.872Z,1
2022-12-31T05:06:04.930Z,0.928571
2022-12-31T05:07:04.942Z,0.928571
2022-12-31T05:08:04.968Z,0.928571
2022-12-31T05:09:05.013Z,1.14286
2022-12-31T05:10:05.042Z,1
2022-12-31T05:11:05.070Z,1.14286
2022-12-31T05:12:05.112Z,1
2022-12-31T05:13:05.151Z,1.14286
2022-12-31T05:14:05.174Z,1
2022-12-31T05:15:05.205Z,1
2022-12-31T05:16:05.262Z,1.14286
2022-12-31T05:17:05.364Z,0.928571
2022-12-31T05:18:05.317Z,1
2022-12-31T05:19:05.352Z,1.21429
2022-12-31T05:20:05.399Z,1.14286
2022-12-31T05:21:05.429Z,0.928571
2022-12-31T05:22:05.471Z,1
2022-12-31T05:23:05.492Z,1.14286
2022-12-31T05:24:05.526Z,1
2022-12-31T05:25:05.575Z,1
2022-12-31T05:26:05.589Z,1
2022-12-31T05:27:05.620Z,1.14286
2022-12-31T05:28:05.655Z,0.928571
2022-12-31T05:29:05.687Z,1.14286
2022-12-31T05:30:05.734Z,1
2022-12-31T05:31:05.810Z,1.14286
2022-12-31T05:32:05.816Z,1.14286
2022-12-31T05:33:05.848Z,1.14286
2022-12-31T05:34:05.887Z,1.14286
2022-12-31T05:35:05.918Z,1.21429
2022-12-31T05:36:05.949Z,1
2022-12-31T05:37:05.989Z,1.14286
2022-12-31T05:38:06.023Z,1.14286
2022-12-31T05:39:06.068Z,1.14286
2022-12-31T05:40:06.092Z,1.14286
2022-12-31T05:41:06.130Z,1
2022-12-31T05:42:06.171Z,1.14286
2022-12-31T05:43:06.204Z,1.21429
2022-12-31T05:44:06.245Z,1.21429
2022-12-31T05:45:06.279Z,1
2022-12-31T05:46:06.367Z,0.928571
2022-12-31T05:47:06.356Z,1.14286
2022-12-31T05:48:06.393Z,1.14286
2022-12-31T05:49:06.430Z,1.14286
2022-12-31T05:50:06.457Z,1.42857
2022-12-31T05:51:06.490Z,0.928571
2022-12-31T05:52:06.529Z,1.14286
2022-12-31T05:53:06.568Z,1.14286
2022-12-31T05:54:06.592Z,1.14286
2022-12-31T05:55:06.625Z,1.14286
2022-12-31T05:56:06.691Z,1.14286
2022-12-31T05:57:06.689Z,1
2022-12-31T05:58:06.737Z,0.928571
2022-12-31T05:59:06.762Z,1.14286
2022-12-31T06:00:06.801Z,0.928571
2022-12-31T06:01:06.873Z,1.21429
2022-12-31T06:02:06.880Z,1.35714
2022-12-31T06:03:07.052Z,1
2022-12-31T06:04:06.953Z,1
2022-12-31T06:05:06.989Z,1
2022-12-31T06:06:07.023Z,1.21429
2022-12-31T06:07:07.053Z,1.14286
2022-12-31T06:08:07.082Z,1
2022-12-31T06:09:07.124Z,1.14286
2022-12-31T06:10:07.169Z,1
2022-12-31T06:11:07.179Z,1
2022-12-31T06:12:07.227Z,1.14286
2022-12-31T06:13:07.269Z,1
2022-12-31T06:14:07.303Z,0.928571
2022-12-31T06:15:07.340Z,1.14286
2022-12-31T06:16:07.423Z,0.928571
2022-12-31T06:17:07.396Z,1
2022-12-31T06:18:07.439Z,1
2022-12-31T06:19:07.467Z,1
2022-12-31T06:20:12.435Z,1.21429
2022-12-31T06:21:07.548Z,1.14286
2022-12-31T06:22:07.583Z,1
2022-12-31T06:23:07.625Z,1
2022-12-31T06:24:07.671Z,1.14286
2022-12-31T06:25:07.688Z,1.21429
2022-12-31T06:26:07.726Z,1
2022-12-31T06:27:07.761Z,1.35714
2022-12-31T06:28:07.798Z,1.14286
2022-12-31T06:29:07.837Z,1.14286
2022-12-31T06:30:07.877Z,1
2022-12-31T06:31:07.924Z,1.35714
2022-12-31T06:32:07.936Z,1
2022-12-31T06:33:07.975Z,1.21429
2022-12-31T06:34:08.003Z,1
2022-12-31T06:35:08.036Z,1
2022-12-31T06:36:08.088Z,1
2022-12-31T06:37:08.121Z,1
2022-12-31T06:38:08.141Z,0.928571
2022-12-31T06:39:08.177Z,1
2022-12-31T06:40:08.212Z,0.857143
2022-12-31T06:41:08.249Z,1.14286
2022-12-31T06:42:08.278Z,1.21429
2022-12-31T06:43:08.307Z,1.14286
2022-12-31T06:44:08.339Z,1
2022-12-31T06:45:08.373Z,1
2022-12-31T06:46:08.513Z,1
2022-12-31T06:47:08.444Z,1
2022-12-31T06:48:08.473Z,1.21429
2022-12-31T06:49:08.511Z,1.14286
2022-12-31T06:50:08.550Z,1
2022-12-31T06:51:11.894Z,1
2022-12-31T06:52:08.620Z,1
2022-12-31T06:53:08.649Z,0.928571
2022-12-31T06:54:08.691Z,1
2022-12-31T06:55:08.728Z,1.14286
2022-12-31T06:56:08.748Z,0.928571
2022-12-31T06:57:08.802Z,1.35714
2022-12-31T06:58:08.834Z,1.14286
2022-12-31T06:59:08.869Z,1
2022-12-31T07:00:08.914Z,1
2022-12-31T07:01:08.952Z,1.14286
2022-12-31T07:02:08.981Z,1.14286
2022-12-31T07:03:09.038Z,1
2022-12-31T07:04:09.035Z,1
2022-12-31T07:05:09.073Z,1
2022-12-31T07:06:09.102Z,0.928571
2022-12-31T07:07:09.139Z,0.928571
2022-12-31T07:08:09.177Z,0.928571
2022-12-31T07:09:09.200Z,0.928571
2022-12-31T07:10:09.254Z,0.928571
2022-12-31T07:11:09.268Z,0.928571
2022-12-31T07:12:09.295Z,1
2022-12-31T07:13:09.331Z,1
2022-12-31T07:14:09.367Z,0.928571
2022-12-31T07:15:09.394Z,1
2022-12-31T07:16:09.464Z,1
2022-12-31T07:17:09.489Z,1.14286
2022-12-31T07:18:09.498Z,1.14286
2022-12-31T07:19:09.537Z,1
2022-12-31T07:20:09.565Z,1
2022-12-31T07:21:09.595Z,1
2022-12-31T07:22:09.624Z,1
2022-12-31T07:23:09.668Z,1
2022-12-31T07:24:09.691Z,1
2022-12-31T07:25:09.723Z,1.14286
2022-12-31T07:26:09.762Z,4.92857
2022-12-31T07:27:09.787Z,3
2022-12-31T07:28:09.822Z,6
2022-12-31T07:29:09.859Z,3.85714
2022-12-31T07:30:09.887Z,3.92857
2022-12-31T07:31:09.983Z,4.42857
2022-12-31T07:32:09.967Z,2.21429
2022-12-31T07:33:10.003Z,4.92857
2022-12-31T07:34:10.039Z,3
2022-12-31T07:35:10.066Z,5.21429
2022-12-31T07:36:10.105Z,1.71429
2022-12-31T07:37:10.143Z,2
2022-12-31T07:38:10.193Z,2
2022-12-31T07:39:10.215Z,3.71429
2022-12-31T07:40:10.239Z,3.35714
2022-12-31T07:41:10.428Z,4.71429
2022-12-31T07:42:10.310Z,4.35714
2022-12-31T07:43:10.336Z,1.92857
2022-12-31T07:44:10.363Z,2.21429
2022-12-31T07:45:10.403Z,3.85714
2022-12-31T07:46:10.498Z,3.35714
2022-12-31T07:47:10.480Z,5.85714
2022-12-31T07:48:10.522Z,3
2022-12-31T07:49:10.562Z,2.64286
2022-12-31T07:50:10.589Z,4.64286
2022-12-31T07:51:10.627Z,2.85714
2022-12-31T07:52:10.654Z,4.5
2022-12-31T07:53:10.695Z,3.42857
2022-12-31T07:54:14.117Z,2.35714
2022-12-31T07:55:10.758Z,6.92857
2022-12-31T07:56:10.784Z,2.42857
2022-12-31T07:57:10.829Z,3
2022-12-31T07:58:10.861Z,2.64286
2022-12-31T07:59:10.889Z,2.71429
2022-12-31T08:00:10.942Z,1.64286
2022-12-31T08:01:11.016Z,1.35714
2022-12-31T08:02:11.063Z,1.14286
2022-12-31T08:03:11.063Z,3.42857
2022-12-31T08:04:11.081Z,2.42857
2022-12-31T08:05:11.124Z,1.92857
2022-12-31T08:06:11.148Z,1.71429
2022-12-31T08:07:11.191Z,1.64286
2022-12-31T08:08:11.216Z,3.71429
2022-12-31T08:09:11.269Z,1.92857
2022-12-31T08:10:17.288Z,1.92857
2022-12-31T08:11:11.302Z,5.64286
2022-12-31T08:12:11.338Z,2.14286
2022-12-31T08:13:11.369Z,1.71429
2022-12-31T08:14:11.414Z,6.14286
2022-12-31T08:15:11.437Z,1.92857
2022-12-31T08:16:11.549Z,1.64286
2022-12-31T08:17:11.511Z,1.14286
2022-12-31T08:18:11.549Z,3.14286
2022-12-31T08:19:11.577Z,1.42857
2022-12-31T08:20:11.615Z,1.21429
2022-12-31T08:21:11.634Z,1.5
2022-12-31T08:22:11.667Z,2.21429
2022-12-31T08:23:11.700Z,1.85714
2022-12-31T08:24:11.739Z,1.92857
2022-12-31T08:25:11.780Z,2.42857
2022-12-31T08:26:11.828Z,1.92857
2022-12-31T08:27:11.852Z,1.85714
2022-12-31T08:28:11.878Z,2.92857
2022-12-31T08:29:11.910Z,1.71429
2022-12-31T08:30:11.946Z,2.5
2022-12-31T08:31:12.056Z,2.14286
2022-12-31T08:32:12.016Z,1.5
2022-12-31T08:33:12.046Z,1.71429
2022-12-31T08:34:12.077Z,1.21429
2022-12-31T08:35:12.114Z,1.64286
2022-12-31T08:36:12.147Z,1.92857
2022-12-31T08:37:12.173Z,1.35714
2022-12-31T08:38:12.202Z,1.42857
2022-12-31T08:39:12.240Z,1.42857
2022-12-31T08:40:12.271Z,1.64286
2022-12-31T08:41:12.321Z,1.35714
2022-12-31T08:42:12.346Z,1.42857
2022-12-31T08:43:12.386Z,1.71429
2022-12-31T08:44:12.412Z,1.35714
2022-12-31T08:45:12.450Z,1.35714
2022-12-31T08:46:12.520Z,1.42857
2022-12-31T08:47:12.510Z,1.21429
2022-12-31T08:48:12.559Z,1.14286
2022-12-31T08:49:12.578Z,1.42857
2022-12-31T08:50:12.619Z,1.85714
2022-12-31T08:51:12.665Z,1.42857
2022-12-31T08:52:12.697Z,1.5
2022-12-31T08:53:12.711Z,1.14286
2022-12-31T08:54:12.785Z,1.85714
2022-12-31T08:55:12.801Z,1.5
2022-12-31T08:56:12.834Z,1.64286
2022-12-31T08:57:12.848Z,1.64286
2022-12-31T08:58:12.888Z,2.42857
2022-12-31T08:59:12.918Z,2.64286
2022-12-31T09:00:12.979Z,1.64286
2022-12-31T09:01:13.078Z,1.5
2022-12-31T09:02:13.072Z,1.21429
2022-12-31T09:03:13.056Z,2.35714
2022-12-31T09:04:13.133Z,4
2022-12-31T09:05:13.111Z,1.21429
2022-12-31T09:06:13.148Z,1.71429
2022-12-31T09:07:13.185Z,1.71429
2022-12-31T09:08:13.217Z,1.5
2022-12-31T09:09:13.250Z,2.85714
2022-12-31T09:10:13.283Z,2.21429
2022-12-31T09:11:17.712Z,1.64286
2022-12-31T09:12:13.349Z,3.5
2022-12-31T09:13:13.384Z,1.35714
2022-12-31T09:14:13.410Z,1.64286
2022-12-31T09:15:13.444Z,2.5
2022-12-31T09:16:13.595Z,2.64286
2022-12-31T09:17:13.517Z,1.35714
2022-12-31T09:18:13.553Z,1.14286
2022-12-31T09:19:13.587Z,1.14286
2022-12-31T09:20:13.615Z,1.42857
2022-12-31T09:21:13.651Z,1.71429
2022-12-31T09:22:13.689Z,1.71429
2022-12-31T09:23:13.711Z,3.92857
2022-12-31T09:24:13.759Z,2.14286
2022-12-31T09:25:13.796Z,2
2022-12-31T09:26:13.811Z,1.42857
2022-12-31T09:27:13.852Z,2.21429
2022-12-31T09:28:13.884Z,1.71429
2022-12-31T09:29:13.932Z,1.85714
2022-12-31T09:30:13.971Z,2
2022-12-31T09:31:14.191Z,2.35714
2022-12-31T09:32:14.035Z,1.42857
2022-12-31T09:33:14.058Z,1.64286
2022-12-31T09:34:14.096Z,1.85714
2022-12-31T09:35:14.129Z,1.64286
2022-12-31T09:36:14.152Z,1.42857
2022-12-31T09:37:14.210Z,1.21429
2022-12-31T09:38:14.216Z,1.21429
2022-12-31T09:39:14.254Z,1.85714
2022-12-31T09:40:14.280Z,1.92857
2022-12-31T09:41:14.333Z,1.5
2022-12-31T09:42:14.352Z,1.64286
2022-12-31T09:43:14.394Z,1.35714
2022-12-31T09:44:14.423Z,1.42857
2022-12-31T09:45:14.451Z,1.35714
2022-12-31T09:46:14.514Z,1.42857
2022-12-31T09:47:14.532Z,1.64286
2022-12-31T09:48:14.576Z,1.71429
2022-12-31T09:49:14.590Z,1.64286
2022-12-31T09:50:14.638Z,2.35714
2022-12-31T09:51:15.699Z,1.92857
2022-12-31T09:52:14.692Z,1.5
2022-12-31T09:53:14.718Z,1.42857
2022-12-31T09:54:14.761Z,1.21429
2022-12-31T09:55:14.782Z,1.42857
2022-12-31T09:56:14.813Z,1.85714
2022-12-31T09:57:14.855Z,2.35714
2022-12-31T09:58:14.898Z,1.5
2022-12-31T09:59:14.924Z,1.5
2022-12-31T10:00:14.955Z,2.71429
2022-12-31T10:01:15.120Z,1.5
2022-12-31T10:02:15.209Z,1.71429
2022-12-31T10:03:15.093Z,1.35714
2022-12-31T10:04:15.104Z,1.71429
2022-12-31T10:05:15.125Z,1.42857
2022-12-31T10:06:15.151Z,1.35714
2022-12-31T10:07:15.185Z,1.85714
2022-12-31T10:08:15.229Z,2.21429
2022-12-31T10:09:15.261Z,1.5
2022-12-31T10:10:15.292Z,1.21429
2022-12-31T10:11:15.346Z,1.21429
2022-12-31T10:12:15.351Z,1.35714
2022-12-31T10:13:15.421Z,1.35714
2022-12-31T10:14:15.423Z,2
2022-12-31T10:15:15.464Z,1.35714
2022-12-31T10:16:15.500Z,1.5
2022-12-31T10:17:15.524Z,1.42857
2022-12-31T10:18:15.607Z,1.21429
2022-12-31T10:19:15.596Z,1.14286
2022-12-31T10:20:15.624Z,1.35714
2022-12-31T10:21:15.668Z,1.21429
2022-12-31T10:22:15.702Z,1.35714
2022-12-31T10:23:15.764Z,1.21429
2022-12-31T10:24:15.758Z,1.21429
2022-12-31T10:25:15.802Z,1.42857
2022-12-31T10:26:15.833Z,1.35714
2022-12-31T10:27:15.867Z,1
2022-12-31T10:28:15.912Z,1.21429
2022-12-31T10:29:16.077Z,1.14286
2022-12-31T10:30:15.987Z,1.14286
2022-12-31T10:31:16.059Z,1.42857
2022-12-31T10:32:16.038Z,1.14286
2022-12-31T10:33:16.075Z,1.14286
2022-12-31T10:34:16.173Z,1.42857
2022-12-31T10:35:16.136Z,1.14286
2022-12-31T10:36:16.162Z,1.21429
2022-12-31T10:37:16.205Z,1.21429
2022-12-31T10:38:16.228Z,1
2022-12-31T10:39:22.240Z,1.21429
2022-12-31T10:40:16.339Z,1.14286
2022-12-31T10:41:16.332Z,1.35714
2022-12-31T10:42:16.365Z,1.14286
2022-12-31T10:43:16.395Z,1.21429
2022-12-31T10:44:16.425Z,1.21429
2022-12-31T10:45:16.453Z,1.42857
2022-12-31T10:46:22.449Z,1.42857
2022-12-31T10:47:16.516Z,1.21429
2022-12-31T10:48:16.564Z,1.21429
2022-12-31T10:49:16.580Z,1.14286
2022-12-31T10:50:16.655Z,1.14286
2022-12-31T10:51:16.635Z,1.21429
2022-12-31T10:52:16.674Z,1.35714
2022-12-31T10:53:16.710Z,1.42857
2022-12-31T10:54:16.723Z,1.35714
2022-12-31T10:55:16.779Z,1.21429
2022-12-31T10:56:16.807Z,1.21429
2022-12-31T10:57:16.837Z,1.21429
2022-12-31T10:58:16.870Z,1.35714
2022-12-31T10:59:16.899Z,1.21429
2022-12-31T11:00:17.017Z,1.14286
2022-12-31T11:01:17.170Z,1.21429
2022-12-31T11:02:17.272Z,1.35714
2022-12-31T11:03:17.108Z,1.35714
2022-12-31T11:04:17.064Z,1.35714
2022-12-31T11:05:17.110Z,1.42857
2022-12-31T11:06:17.140Z,1.42857
2022-12-31T11:07:17.174Z,1.64286
2022-12-31T11:08:17.200Z,1.35714
2022-12-31T11:09:17.234Z,1.14286
2022-12-31T11:10:17.273Z,1.21429
2022-12-31T11:11:17.308Z,1.21429
2022-12-31T11:12:17.328Z,1.21429
2022-12-31T11:13:17.367Z,1.14286
2022-12-31T11:14:17.407Z,1.21429
2022-12-31T11:15:17.431Z,1.35714
2022-12-31T11:16:17.506Z,1.35714
2022-12-31T11:17:17.500Z,1.21429
2022-12-31T11:18:17.519Z,1.42857
2022-12-31T11:19:17.564Z,1.21429
2022-12-31T11:20:17.591Z,1.42857
2022-12-31T11:21:19.692Z,1
2022-12-31T11:22:17.661Z,1.21429
2022-12-31T11:23:17.691Z,1.35714
2022-12-31T11:24:17.736Z,1.5
2022-12-31T11:25:17.775Z,1.14286
2022-12-31T11:26:17.796Z,1.35714
2022-12-31T11:27:17.824Z,1.35714
2022-12-31T11:28:17.871Z,1.21429
2022-12-31T11:29:17.894Z,1.35714
2022-12-31T11:30:17.932Z,1.21429
2022-12-31T11:31:18.041Z,1.42857
2022-12-31T11:32:18.002Z,1.14286
2022-12-31T11:33:18.122Z,1.42857
2022-12-31T11:34:18.060Z,1.35714
2022-12-31T11:35:18.103Z,1.21429
2022-12-31T11:36:18.124Z,1.35714
2022-12-31T11:37:18.183Z,1.5
2022-12-31T11:38:18.188Z,1.42857
2022-12-31T11:39:18.229Z,1.42857
2022-12-31T11:40:18.260Z,1.35714
2022-12-31T11:41:18.295Z,1.42857
2022-12-31T11:42:18.330Z,1.42857
2022-12-31T11:43:18.353Z,1.42857
2022-12-31T11:44:18.381Z,1.14286
2022-12-31T11:45:18.416Z,1.35714
2022-12-31T11:46:18.468Z,1.21429
2022-12-31T11:47:18.478Z,1.42857
2022-12-31T11:48:31.802Z,1.35714
2022-12-31T11:49:18.565Z,1.35714
2022-12-31T11:50:18.575Z,1.21429
2022-12-31T11:51:18.616Z,1.42857
2022-12-31T11:52:21.557Z,1.35714
2022-12-31T11:53:18.701Z,1.21429
2022-12-31T11:54:18.732Z,1.35714
2022-12-31T11:55:18.757Z,1.21429
2022-12-31T11:56:18.787Z,1
2022-12-31T11:57:18.821Z,1.35714
2022-12-31T11:58:18.862Z,2.21429
2022-12-31T11:59:19.799Z,1.42857
2022-12-31T12:00:18.992Z,1.14286
2022-12-31T12:01:19.038Z,1.35714
2022-12-31T12:02:19.125Z,1.71429
2022-12-31T12:03:19.004Z,1.5
2022-12-31T12:04:19.071Z,1.42857
2022-12-31T12:05:19.078Z,1.42857
2022-12-31T12:06:19.115Z,1.21429
2022-12-31T12:07:19.146Z,1.21429
2022-12-31T12:08:19.181Z,1.35714
2022-12-31T12:09:19.212Z,1.35714
2022-12-31T12:10:19.253Z,1.35714
2022-12-31T12:11:19.296Z,1.5
2022-12-31T12:12:19.338Z,1.35714
2022-12-31T12:13:19.355Z,1.5
2022-12-31T12:14:19.385Z,1.42857
2022-12-31T12:15:19.410Z,1.42857
2022-12-31T12:16:19.466Z,1.35714
2022-12-31T12:17:19.486Z,1.21429
2022-12-31T12:18:19.512Z,1.42857
2022-12-31T12:19:19.554Z,1.35714
2022-12-31T12:20:19.576Z,1.21429
2022-12-31T12:21:19.610Z,1.42857
2022-12-31T12:22:19.643Z,1.5
2022-12-31T12:23:19.673Z,1.21429
2022-12-31T12:24:19.709Z,1.64286
2022-12-31T12:25:19.736Z,1.35714
2022-12-31T12:26:19.766Z,1.5
2022-12-31T12:27:19.800Z,1.21429
2022-12-31T12:28:19.823Z,1.71429
2022-12-31T12:29:19.866Z,1.42857
2022-12-31T12:30:19.888Z,1.21429
2022-12-31T12:31:20.002Z,3.14286
2022-12-31T12:32:19.967Z,2.92857
2022-12-31T12:33:19.977Z,2
2022-12-31T12:34:20.014Z,1.64286
2022-12-31T12:35:20.069Z,1.71429
2022-12-31T12:36:20.083Z,1.35714